sensor_id;sensor_type;location;lat;lon;timestamp;P1;durP1;ratioP1;P2;durP2;ratioP2
49784;SDS011;35679;38.732;-121.358;2022-08-18T00:00:25;13.65;;;10.63;;
49784;SDS011;35679;38.732;-121.358;2022-08-18T00:03:15;15.98;;;10.85;;
49784;SDS011;35679;38.732;-121.358;2022-08-18T00:06:27;13.43;;;10.10;;
49784;SDS011;35679;38.732;-121.358;2022-08-18T00:09:17;14.50;;;10.50;;
49784;SDS011;35679;38.732;-121.358;2022-08-18T00:12:10;13.57;;;9.85;;
49784;SDS011;35679;38.732;-121.358;2022-08-18T00:15:12;14.02;;;11.00;;
49784;SDS011;35679;38.732;-121.358;2022-08-18T00:18:03;14.43;;;10.18;;
49784;SDS011;35679;38.732;-121.358;2022-08-18T00:20:53;14.98;;;10.32;;
49784;SDS011;35679;38.732;-121.358;2022-08-18T00:23:44;11.77;;;10.18;;
49784;SDS011;35679;38.732;-121.358;2022-08-18T00:26:33;13.60;;;10.45;;
49784;SDS011;35679;38.732;-121.358;2022-08-18T00:29:23;15.35;;;10.40;;
49784;SDS011;35679;38.732;-121.358;2022-08-18T00:32:14;16.23;;;10.40;;
49784;SDS011;35679;38.732;-121.358;2022-08-18T00:35:10;13.93;;;10.32;;
49784;SDS011;35679;38.732;-121.358;2022-08-18T00:38:06;14.20;;;10.13;;
49784;SDS011;35679;38.732;-121.358;2022-08-18T00:41:11;14.07;;;10.10;;
49784;SDS011;35679;38.732;-121.358;2022-08-18T00:44:01;14.43;;;10.30;;
49784;SDS011;35679;38.732;-121.358;2022-08-18T00:46:51;13.40;;;9.90;;
49784;SDS011;35679;38.732;-121.358;2022-08-18T00:49:41;14.57;;;10.82;;
49784;SDS011;35679;38.732;-121.358;2022-08-18T00:52:32;13.02;;;10.30;;
49784;SDS011;35679;38.732;-121.358;2022-08-18T00:55:21;12.60;;;9.48;;
49784;SDS011;35679;38.732;-121.358;2022-08-18T00:58:14;12.02;;;9.57;;
49784;SDS011;35679;38.732;-121.358;2022-08-18T01:01:15;13.77;;;9.93;;
49784;SDS011;35679;38.732;-121.358;2022-08-18T01:04:15;12.85;;;9.38;;
49784;SDS011;35679;38.732;-121.358;2022-08-18T01:07:16;13.97;;;11.27;;
49784;SDS011;35679;38.732;-121.358;2022-08-18T01:10:09;14.75;;;10.18;;
49784;SDS011;35679;38.732;-121.358;2022-08-18T01:13:03;13.77;;;9.95;;
49784;SDS011;35679;38.732;-121.358;2022-08-18T01:15:53;15.07;;;10.07;;
49784;SDS011;35679;38.732;-121.358;2022-08-18T01:18:42;13.40;;;9.80;;
49784;SDS011;35679;38.732;-121.358;2022-08-18T01:21:54;12.70;;;9.30;;
49784;SDS011;35679;38.732;-121.358;2022-08-18T01:24:50;14.25;;;9.57;;
49784;SDS011;35679;38.732;-121.358;2022-08-18T01:27:59;15.10;;;9.63;;
49784;SDS011;35679;38.732;-121.358;2022-08-18T01:30:51;12.43;;;9.48;;
49784;SDS011;35679;38.732;-121.358;2022-08-18T01:33:48;14.70;;;10.25;;
49784;SDS011;35679;38.732;-121.358;2022-08-18T01:36:38;14.48;;;9.88;;
49784;SDS011;35679;38.732;-121.358;2022-08-18T01:39:29;12.43;;;9.35;;
49784;SDS011;35679;38.732;-121.358;2022-08-18T01:42:39;12.50;;;9.52;;
49784;SDS011;35679;38.732;-121.358;2022-08-18T01:45:32;12.07;;;9.35;;
49784;SDS011;35679;38.732;-121.358;2022-08-18T01:48:22;11.77;;;9.10;;
49784;SDS011;35679;38.732;-121.358;2022-08-18T01:51:13;14.77;;;9.27;;
49784;SDS011;35679;38.732;-121.358;2022-08-18T01:54:03;15.02;;;9.70;;
49784;SDS011;35679;38.732;-121.358;2022-08-18T01:56:53;11.07;;;8.85;;
49784;SDS011;35679;38.732;-121.358;2022-08-18T01:59:43;15.18;;;9.73;;
49784;SDS011;35679;38.732;-121.358;2022-08-18T02:02:32;13.10;;;9.65;;
49784;SDS011;35679;38.732;-121.358;2022-08-18T02:05:23;12.55;;;9.73;;
49784;SDS011;35679;38.732;-121.358;2022-08-18T02:08:19;13.05;;;9.25;;
49784;SDS011;35679;38.732;-121.358;2022-08-18T02:11:14;13.68;;;9.45;;
49784;SDS011;35679;38.732;-121.358;2022-08-18T02:14:05;14.15;;;10.38;;
49784;SDS011;35679;38.732;-121.358;2022-08-18T02:16:55;12.85;;;10.18;;
49784;SDS011;35679;38.732;-121.358;2022-08-18T02:19:49;10.85;;;9.40;;
49784;SDS011;35679;38.732;-121.358;2022-08-18T02:22:39;12.75;;;9.23;;
49784;SDS011;35679;38.732;-121.358;2022-08-18T02:25:29;11.95;;;9.30;;
49784;SDS011;35679;38.732;-121.358;2022-08-18T02:28:18;10.57;;;8.65;;
49784;SDS011;35679;38.732;-121.358;2022-08-18T02:31:12;13.27;;;10.00;;
49784;SDS011;35679;38.732;-121.358;2022-08-18T02:34:07;12.05;;;9.10;;
49784;SDS011;35679;38.732;-121.358;2022-08-18T02:37:00;10.98;;;9.07;;
49784;SDS011;35679;38.732;-121.358;2022-08-18T02:39:50;11.60;;;9.57;;
49784;SDS011;35679;38.732;-121.358;2022-08-18T02:42:39;12.02;;;9.05;;
49784;SDS011;35679;38.732;-121.358;2022-08-18T02:45:29;12.38;;;9.55;;
49784;SDS011;35679;38.732;-121.358;2022-08-18T02:48:20;13.30;;;9.63;;
49784;SDS011;35679;38.732;-121.358;2022-08-18T02:51:27;11.63;;;8.85;;
49784;SDS011;35679;38.732;-121.358;2022-08-18T02:54:20;11.93;;;8.88;;
49784;SDS011;35679;38.732;-121.358;2022-08-18T02:57:11;13.02;;;10.05;;
49784;SDS011;35679;38.732;-121.358;2022-08-18T03:00:01;12.10;;;8.90;;
49784;SDS011;35679;38.732;-121.358;2022-08-18T03:02:52;12.95;;;9.45;;
49784;SDS011;35679;38.732;-121.358;2022-08-18T03:05:42;12.13;;;9.40;;
49784;SDS011;35679;38.732;-121.358;2022-08-18T03:08:31;12.45;;;9.18;;
49784;SDS011;35679;38.732;-121.358;2022-08-18T03:11:23;11.27;;;9.30;;
49784;SDS011;35679;38.732;-121.358;2022-08-18T03:14:14;11.35;;;8.75;;
49784;SDS011;35679;38.732;-121.358;2022-08-18T03:17:04;12.63;;;9.40;;
49784;SDS011;35679;38.732;-121.358;2022-08-18T03:19:55;11.63;;;8.88;;
49784;SDS011;35679;38.732;-121.358;2022-08-18T03:22:47;12.40;;;9.77;;
49784;SDS011;35679;38.732;-121.358;2022-08-18T03:25:44;9.85;;;8.10;;
49784;SDS011;35679;38.732;-121.358;2022-08-18T03:28:34;12.25;;;9.35;;
49784;SDS011;35679;38.732;-121.358;2022-08-18T03:31:25;13.07;;;9.38;;
49784;SDS011;35679;38.732;-121.358;2022-08-18T03:34:18;11.88;;;8.85;;
49784;SDS011;35679;38.732;-121.358;2022-08-18T03:37:09;11.82;;;9.23;;
49784;SDS011;35679;38.732;-121.358;2022-08-18T03:39:58;10.10;;;8.50;;
49784;SDS011;35679;38.732;-121.358;2022-08-18T03:42:48;12.13;;;8.73;;
49784;SDS011;35679;38.732;-121.358;2022-08-18T03:45:38;11.07;;;8.70;;
49784;SDS011;35679;38.732;-121.358;2022-08-18T03:48:29;11.40;;;9.27;;
49784;SDS011;35679;38.732;-121.358;2022-08-18T03:51:22;11.40;;;8.95;;
49784;SDS011;35679;38.732;-121.358;2022-08-18T03:54:15;10.63;;;8.63;;
49784;SDS011;35679;38.732;-121.358;2022-08-18T03:57:10;10.43;;;8.77;;
49784;SDS011;35679;38.732;-121.358;2022-08-18T04:00:00;12.32;;;9.15;;
49784;SDS011;35679;38.732;-121.358;2022-08-18T04:02:51;12.38;;;9.30;;
49784;SDS011;35679;38.732;-121.358;2022-08-18T04:05:41;11.38;;;8.65;;
49784;SDS011;35679;38.732;-121.358;2022-08-18T04:08:31;10.68;;;7.95;;
49784;SDS011;35679;38.732;-121.358;2022-08-18T04:11:21;11.88;;;9.02;;
49784;SDS011;35679;38.732;-121.358;2022-08-18T04:14:13;10.85;;;8.60;;
49784;SDS011;35679;38.732;-121.358;2022-08-18T04:17:05;10.68;;;8.68;;
49784;SDS011;35679;38.732;-121.358;2022-08-18T04:19:54;12.13;;;8.50;;
49784;SDS011;35679;38.732;-121.358;2022-08-18T04:22:44;11.68;;;9.15;;
49784;SDS011;35679;38.732;-121.358;2022-08-18T04:25:34;12.30;;;8.90;;
49784;SDS011;35679;38.732;-121.358;2022-08-18T04:28:24;11.63;;;8.68;;
49784;SDS011;35679;38.732;-121.358;2022-08-18T04:31:14;11.95;;;9.18;;
49784;SDS011;35679;38.732;-121.358;2022-08-18T04:34:05;11.13;;;8.85;;
49784;SDS011;35679;38.732;-121.358;2022-08-18T04:36:55;11.57;;;9.02;;
49784;SDS011;35679;38.732;-121.358;2022-08-18T04:39:44;11.75;;;8.75;;
49784;SDS011;35679;38.732;-121.358;2022-08-18T04:42:34;10.90;;;8.27;;
49784;SDS011;35679;38.732;-121.358;2022-08-18T04:45:29;10.88;;;8.07;;
49784;SDS011;35679;38.732;-121.358;2022-08-18T04:48:19;11.50;;;8.82;;
49784;SDS011;35679;38.732;-121.358;2022-08-18T04:51:11;10.48;;;8.52;;
49784;SDS011;35679;38.732;-121.358;2022-08-18T04:54:25;11.40;;;8.88;;
49784;SDS011;35679;38.732;-121.358;2022-08-18T04:57:17;10.63;;;8.45;;
49784;SDS011;35679;38.732;-121.358;2022-08-18T05:00:08;12.80;;;8.73;;
49784;SDS011;35679;38.732;-121.358;2022-08-18T05:03:01;10.90;;;8.50;;
49784;SDS011;35679;38.732;-121.358;2022-08-18T05:05:52;10.68;;;8.25;;
49784;SDS011;35679;38.732;-121.358;2022-08-18T05:08:42;10.90;;;8.25;;
49784;SDS011;35679;38.732;-121.358;2022-08-18T05:11:33;11.18;;;8.35;;
49784;SDS011;35679;38.732;-121.358;2022-08-18T05:14:24;11.25;;;8.75;;
49784;SDS011;35679;38.732;-121.358;2022-08-18T05:17:14;10.43;;;8.45;;
49784;SDS011;35679;38.732;-121.358;2022-08-18T05:20:06;10.85;;;8.00;;
49784;SDS011;35679;38.732;-121.358;2022-08-18T05:22:56;10.25;;;8.27;;
49784;SDS011;35679;38.732;-121.358;2022-08-18T05:25:46;12.25;;;9.05;;
49784;SDS011;35679;38.732;-121.358;2022-08-18T05:28:39;10.10;;;8.57;;
49784;SDS011;35679;38.732;-121.358;2022-08-18T05:31:30;12.15;;;8.10;;
49784;SDS011;35679;38.732;-121.358;2022-08-18T05:34:21;11.13;;;8.27;;
49784;SDS011;35679;38.732;-121.358;2022-08-18T05:37:27;12.07;;;8.40;;
49784;SDS011;35679;38.732;-121.358;2022-08-18T05:40:23;11.85;;;8.45;;
49784;SDS011;35679;38.732;-121.358;2022-08-18T05:43:14;11.93;;;8.60;;
49784;SDS011;35679;38.732;-121.358;2022-08-18T05:46:06;10.75;;;8.55;;
49784;SDS011;35679;38.732;-121.358;2022-08-18T05:48:58;11.40;;;8.60;;
49784;SDS011;35679;38.732;-121.358;2022-08-18T05:51:50;10.98;;;8.32;;
49784;SDS011;35679;38.732;-121.358;2022-08-18T05:54:47;10.18;;;8.02;;
49784;SDS011;35679;38.732;-121.358;2022-08-18T05:57:59;9.90;;;7.93;;
49784;SDS011;35679;38.732;-121.358;2022-08-18T06:00:57;9.55;;;8.32;;
49784;SDS011;35679;38.732;-121.358;2022-08-18T06:03:54;11.20;;;8.05;;
49784;SDS011;35679;38.732;-121.358;2022-08-18T06:06:53;10.23;;;8.30;;
49784;SDS011;35679;38.732;-121.358;2022-08-18T06:09:52;10.77;;;8.48;;
49784;SDS011;35679;38.732;-121.358;2022-08-18T06:12:44;10.80;;;8.38;;
49784;SDS011;35679;38.732;-121.358;2022-08-18T06:15:41;11.85;;;9.00;;
49784;SDS011;35679;38.732;-121.358;2022-08-18T06:22:16;10.40;;;8.30;;
49784;SDS011;35679;38.732;-121.358;2022-08-18T06:29:03;10.55;;;8.23;;
49784;SDS011;35679;38.732;-121.358;2022-08-18T06:35:36;10.65;;;7.90;;
49784;SDS011;35679;38.732;-121.358;2022-08-18T06:41:52;10.93;;;8.18;;
49784;SDS011;35679;38.732;-121.358;2022-08-18T06:44:48;12.98;;;8.13;;
49784;SDS011;35679;38.732;-121.358;2022-08-18T06:50:49;11.23;;;8.65;;
49784;SDS011;35679;38.732;-121.358;2022-08-18T06:53:49;11.27;;;8.00;;
49784;SDS011;35679;38.732;-121.358;2022-08-18T06:56:48;11.32;;;8.50;;
49784;SDS011;35679;38.732;-121.358;2022-08-18T07:02:51;12.07;;;8.57;;
49784;SDS011;35679;38.732;-121.358;2022-08-18T07:08:45;10.82;;;8.18;;
49784;SDS011;35679;38.732;-121.358;2022-08-18T07:11:37;10.50;;;8.55;;
49784;SDS011;35679;38.732;-121.358;2022-08-18T07:14:31;12.75;;;8.88;;
49784;SDS011;35679;38.732;-121.358;2022-08-18T07:17:33;11.32;;;8.35;;
49784;SDS011;35679;38.732;-121.358;2022-08-18T07:20:42;10.60;;;8.15;;
49784;SDS011;35679;38.732;-121.358;2022-08-18T07:23:35;10.70;;;8.27;;
49784;SDS011;35679;38.732;-121.358;2022-08-18T07:26:26;15.38;;;9.27;;
49784;SDS011;35679;38.732;-121.358;2022-08-18T07:29:16;10.60;;;8.18;;
49784;SDS011;35679;38.732;-121.358;2022-08-18T07:32:16;10.52;;;8.27;;
49784;SDS011;35679;38.732;-121.358;2022-08-18T07:38:08;10.45;;;8.48;;
49784;SDS011;35679;38.732;-121.358;2022-08-18T07:41:31;9.88;;;8.40;;
49784;SDS011;35679;38.732;-121.358;2022-08-18T07:44:49;12.82;;;9.05;;
49784;SDS011;35679;38.732;-121.358;2022-08-18T07:48:20;11.82;;;8.30;;
49784;SDS011;35679;38.732;-121.358;2022-08-18T08:00:50;11.65;;;8.60;;
49784;SDS011;35679;38.732;-121.358;2022-08-18T08:07:48;11.10;;;8.52;;
49784;SDS011;35679;38.732;-121.358;2022-08-18T08:10:51;11.60;;;8.30;;
49784;SDS011;35679;38.732;-121.358;2022-08-18T08:14:28;11.80;;;8.77;;
49784;SDS011;35679;38.732;-121.358;2022-08-18T08:17:29;11.75;;;8.63;;
49784;SDS011;35679;38.732;-121.358;2022-08-18T08:20:42;9.70;;;7.60;;
49784;SDS011;35679;38.732;-121.358;2022-08-18T08:23:54;10.65;;;8.60;;
49784;SDS011;35679;38.732;-121.358;2022-08-18T08:26:53;12.20;;;8.40;;
49784;SDS011;35679;38.732;-121.358;2022-08-18T08:36:27;11.38;;;8.60;;
49784;SDS011;35679;38.732;-121.358;2022-08-18T08:39:25;11.73;;;8.50;;
49784;SDS011;35679;38.732;-121.358;2022-08-18T08:42:38;11.05;;;8.55;;
49784;SDS011;35679;38.732;-121.358;2022-08-18T08:45:33;10.95;;;8.77;;
49784;SDS011;35679;38.732;-121.358;2022-08-18T08:48:26;10.85;;;8.68;;
49784;SDS011;35679;38.732;-121.358;2022-08-18T08:54:27;10.32;;;7.60;;
49784;SDS011;35679;38.732;-121.358;2022-08-18T08:57:46;11.13;;;8.15;;
49784;SDS011;35679;38.732;-121.358;2022-08-18T09:00:40;12.35;;;8.20;;
49784;SDS011;35679;38.732;-121.358;2022-08-18T09:10:00;12.15;;;8.45;;
49784;SDS011;35679;38.732;-121.358;2022-08-18T09:22:46;12.07;;;8.18;;
49784;SDS011;35679;38.732;-121.358;2022-08-18T09:25:44;11.30;;;8.48;;
49784;SDS011;35679;38.732;-121.358;2022-08-18T09:31:27;9.48;;;7.68;;
49784;SDS011;35679;38.732;-121.358;2022-08-18T09:37:38;11.70;;;8.70;;
49784;SDS011;35679;38.732;-121.358;2022-08-18T09:41:25;12.52;;;8.05;;
49784;SDS011;35679;38.732;-121.358;2022-08-18T09:50:35;12.32;;;8.80;;
49784;SDS011;35679;38.732;-121.358;2022-08-18T09:53:33;11.90;;;8.65;;
49784;SDS011;35679;38.732;-121.358;2022-08-18T10:05:36;11.23;;;7.90;;
49784;SDS011;35679;38.732;-121.358;2022-08-18T10:08:52;11.95;;;8.65;;
49784;SDS011;35679;38.732;-121.358;2022-08-18T10:15:36;9.50;;;8.35;;
49784;SDS011;35679;38.732;-121.358;2022-08-18T10:22:36;9.80;;;8.25;;
49784;SDS011;35679;38.732;-121.358;2022-08-18T10:34:50;10.40;;;8.18;;
49784;SDS011;35679;38.732;-121.358;2022-08-18T10:37:43;12.05;;;8.73;;
49784;SDS011;35679;38.732;-121.358;2022-08-18T10:40:37;11.20;;;8.35;;
49784;SDS011;35679;38.732;-121.358;2022-08-18T10:43:39;11.38;;;8.25;;
49784;SDS011;35679;38.732;-121.358;2022-08-18T10:46:42;11.13;;;8.65;;
49784;SDS011;35679;38.732;-121.358;2022-08-18T10:49:35;10.38;;;8.30;;
49784;SDS011;35679;38.732;-121.358;2022-08-18T11:06:42;9.48;;;8.23;;
49784;SDS011;35679;38.732;-121.358;2022-08-18T11:09:37;11.35;;;8.63;;
49784;SDS011;35679;38.732;-121.358;2022-08-18T11:16:16;10.30;;;7.97;;
49784;SDS011;35679;38.732;-121.358;2022-08-18T11:19:40;10.82;;;8.38;;
49784;SDS011;35679;38.732;-121.358;2022-08-18T11:22:33;12.38;;;8.85;;
49784;SDS011;35679;38.732;-121.358;2022-08-18T11:25:28;11.23;;;8.67;;
49784;SDS011;35679;38.732;-121.358;2022-08-18T11:28:20;11.52;;;8.73;;
49784;SDS011;35679;38.732;-121.358;2022-08-18T11:31:18;10.52;;;8.05;;
49784;SDS011;35679;38.732;-121.358;2022-08-18T11:34:17;10.00;;;7.30;;
49784;SDS011;35679;38.732;-121.358;2022-08-18T11:37:22;10.35;;;8.35;;
49784;SDS011;35679;38.732;-121.358;2022-08-18T11:40:40;10.38;;;8.10;;
49784;SDS011;35679;38.732;-121.358;2022-08-18T11:43:59;11.68;;;8.40;;
49784;SDS011;35679;38.732;-121.358;2022-08-18T11:46:54;11.98;;;8.35;;
49784;SDS011;35679;38.732;-121.358;2022-08-18T11:50:05;10.30;;;8.35;;
49784;SDS011;35679;38.732;-121.358;2022-08-18T11:53:13;12.05;;;8.20;;
49784;SDS011;35679;38.732;-121.358;2022-08-18T11:56:29;11.18;;;8.30;;
49784;SDS011;35679;38.732;-121.358;2022-08-18T12:02:41;12.10;;;8.35;;
49784;SDS011;35679;38.732;-121.358;2022-08-18T12:05:41;11.57;;;8.52;;
49784;SDS011;35679;38.732;-121.358;2022-08-18T12:09:15;9.95;;;8.20;;
49784;SDS011;35679;38.732;-121.358;2022-08-18T12:12:30;12.50;;;9.18;;
49784;SDS011;35679;38.732;-121.358;2022-08-18T12:15:29;10.93;;;8.00;;
49784;SDS011;35679;38.732;-121.358;2022-08-18T12:18:42;11.35;;;8.35;;
49784;SDS011;35679;38.732;-121.358;2022-08-18T12:21:39;9.90;;;8.20;;
49784;SDS011;35679;38.732;-121.358;2022-08-18T12:24:31;10.93;;;8.27;;
49784;SDS011;35679;38.732;-121.358;2022-08-18T12:27:41;10.63;;;8.20;;
49784;SDS011;35679;38.732;-121.358;2022-08-18T12:30:31;11.40;;;8.52;;
49784;SDS011;35679;38.732;-121.358;2022-08-18T12:33:21;12.77;;;8.70;;
49784;SDS011;35679;38.732;-121.358;2022-08-18T12:36:12;9.65;;;7.50;;
49784;SDS011;35679;38.732;-121.358;2022-08-18T12:39:02;10.30;;;8.30;;
49784;SDS011;35679;38.732;-121.358;2022-08-18T12:41:52;10.50;;;8.23;;
49784;SDS011;35679;38.732;-121.358;2022-08-18T12:44:46;10.82;;;8.10;;
49784;SDS011;35679;38.732;-121.358;2022-08-18T12:47:37;9.68;;;7.85;;
49784;SDS011;35679;38.732;-121.358;2022-08-18T12:50:28;10.15;;;8.45;;
49784;SDS011;35679;38.732;-121.358;2022-08-18T12:53:24;9.38;;;7.85;;
49784;SDS011;35679;38.732;-121.358;2022-08-18T12:56:34;9.73;;;7.65;;
49784;SDS011;35679;38.732;-121.358;2022-08-18T12:59:25;10.85;;;8.38;;
49784;SDS011;35679;38.732;-121.358;2022-08-18T13:02:23;11.70;;;8.20;;
49784;SDS011;35679;38.732;-121.358;2022-08-18T13:05:13;10.30;;;7.97;;
49784;SDS011;35679;38.732;-121.358;2022-08-18T13:08:15;10.27;;;8.20;;
49784;SDS011;35679;38.732;-121.358;2022-08-18T13:11:17;10.35;;;8.45;;
49784;SDS011;35679;38.732;-121.358;2022-08-18T13:14:11;10.25;;;7.95;;
49784;SDS011;35679;38.732;-121.358;2022-08-18T13:17:03;9.55;;;7.82;;
49784;SDS011;35679;38.732;-121.358;2022-08-18T13:19:58;9.68;;;7.70;;
49784;SDS011;35679;38.732;-121.358;2022-08-18T13:22:48;9.93;;;8.23;;
49784;SDS011;35679;38.732;-121.358;2022-08-18T13:25:39;10.80;;;8.33;;
49784;SDS011;35679;38.732;-121.358;2022-08-18T13:28:33;9.35;;;8.07;;
49784;SDS011;35679;38.732;-121.358;2022-08-18T13:31:43;10.80;;;8.35;;
49784;SDS011;35679;38.732;-121.358;2022-08-18T13:34:44;11.40;;;8.23;;
49784;SDS011;35679;38.732;-121.358;2022-08-18T13:37:38;11.40;;;7.70;;
49784;SDS011;35679;38.732;-121.358;2022-08-18T13:40:28;11.60;;;8.43;;
49784;SDS011;35679;38.732;-121.358;2022-08-18T13:43:27;13.43;;;8.27;;
49784;SDS011;35679;38.732;-121.358;2022-08-18T13:46:20;12.13;;;8.63;;
49784;SDS011;35679;38.732;-121.358;2022-08-18T13:49:18;12.05;;;9.02;;
49784;SDS011;35679;38.732;-121.358;2022-08-18T13:52:17;12.07;;;8.85;;
49784;SDS011;35679;38.732;-121.358;2022-08-18T13:55:22;13.63;;;9.00;;
49784;SDS011;35679;38.732;-121.358;2022-08-18T13:58:15;14.60;;;8.35;;
49784;SDS011;35679;38.732;-121.358;2022-08-18T14:01:07;15.75;;;8.85;;
49784;SDS011;35679;38.732;-121.358;2022-08-18T14:04:20;13.05;;;8.60;;
49784;SDS011;35679;38.732;-121.358;2022-08-18T14:07:14;11.80;;;8.43;;
49784;SDS011;35679;38.732;-121.358;2022-08-18T14:10:15;15.70;;;8.60;;
49784;SDS011;35679;38.732;-121.358;2022-08-18T14:13:04;15.35;;;9.70;;
49784;SDS011;35679;38.732;-121.358;2022-08-18T14:16:11;13.57;;;8.75;;
49784;SDS011;35679;38.732;-121.358;2022-08-18T14:19:05;12.13;;;8.77;;
49784;SDS011;35679;38.732;-121.358;2022-08-18T14:22:14;17.65;;;8.82;;
49784;SDS011;35679;38.732;-121.358;2022-08-18T14:25:23;15.65;;;8.98;;
49784;SDS011;35679;38.732;-121.358;2022-08-18T14:28:31;13.07;;;8.77;;
49784;SDS011;35679;38.732;-121.358;2022-08-18T14:31:24;15.85;;;8.65;;
49784;SDS011;35679;38.732;-121.358;2022-08-18T14:34:14;14.32;;;8.73;;
49784;SDS011;35679;38.732;-121.358;2022-08-18T14:37:14;15.88;;;9.35;;
49784;SDS011;35679;38.732;-121.358;2022-08-18T14:40:04;12.32;;;8.20;;
49784;SDS011;35679;38.732;-121.358;2022-08-18T14:42:59;13.55;;;8.65;;
49784;SDS011;35679;38.732;-121.358;2022-08-18T14:45:54;11.30;;;8.20;;
49784;SDS011;35679;38.732;-121.358;2022-08-18T14:48:44;14.32;;;9.05;;
49784;SDS011;35679;38.732;-121.358;2022-08-18T14:51:35;12.38;;;8.65;;
49784;SDS011;35679;38.732;-121.358;2022-08-18T14:54:29;13.27;;;9.05;;
49784;SDS011;35679;38.732;-121.358;2022-08-18T14:57:19;13.40;;;8.93;;
49784;SDS011;35679;38.732;-121.358;2022-08-18T15:00:13;13.55;;;8.93;;
49784;SDS011;35679;38.732;-121.358;2022-08-18T15:03:07;13.27;;;9.50;;
49784;SDS011;35679;38.732;-121.358;2022-08-18T15:05:57;11.88;;;8.65;;
49784;SDS011;35679;38.732;-121.358;2022-08-18T15:08:51;15.23;;;8.65;;
49784;SDS011;35679;38.732;-121.358;2022-08-18T15:11:40;14.07;;;9.43;;
49784;SDS011;35679;38.732;-121.358;2022-08-18T15:14:31;11.60;;;8.63;;
49784;SDS011;35679;38.732;-121.358;2022-08-18T15:17:22;16.63;;;9.75;;
49784;SDS011;35679;38.732;-121.358;2022-08-18T15:20:16;13.38;;;8.90;;
49784;SDS011;35679;38.732;-121.358;2022-08-18T15:23:16;12.88;;;8.57;;
49784;SDS011;35679;38.732;-121.358;2022-08-18T15:26:30;13.63;;;9.02;;
49784;SDS011;35679;38.732;-121.358;2022-08-18T15:29:22;12.88;;;8.63;;
49784;SDS011;35679;38.732;-121.358;2022-08-18T15:32:16;12.13;;;9.15;;
49784;SDS011;35679;38.732;-121.358;2022-08-18T15:35:08;14.18;;;8.65;;
49784;SDS011;35679;38.732;-121.358;2022-08-18T15:38:01;13.13;;;9.02;;
49784;SDS011;35679;38.732;-121.358;2022-08-18T15:40:53;13.45;;;9.05;;
49784;SDS011;35679;38.732;-121.358;2022-08-18T15:43:53;12.00;;;8.63;;
49784;SDS011;35679;38.732;-121.358;2022-08-18T15:46:45;11.73;;;8.57;;
49784;SDS011;35679;38.732;-121.358;2022-08-18T15:49:41;12.02;;;8.45;;
49784;SDS011;35679;38.732;-121.358;2022-08-18T15:52:30;15.23;;;9.25;;
49784;SDS011;35679;38.732;-121.358;2022-08-18T15:55:22;12.20;;;9.13;;
49784;SDS011;35679;38.732;-121.358;2022-08-18T15:58:13;13.40;;;9.10;;
49784;SDS011;35679;38.732;-121.358;2022-08-18T16:01:08;12.30;;;8.88;;
49784;SDS011;35679;38.732;-121.358;2022-08-18T16:04:18;11.57;;;8.73;;
49784;SDS011;35679;38.732;-121.358;2022-08-18T16:07:10;13.07;;;9.02;;
49784;SDS011;35679;38.732;-121.358;2022-08-18T16:10:00;11.95;;;9.07;;
49784;SDS011;35679;38.732;-121.358;2022-08-18T16:12:50;11.20;;;8.70;;
49784;SDS011;35679;38.732;-121.358;2022-08-18T16:15:41;13.93;;;9.38;;
49784;SDS011;35679;38.732;-121.358;2022-08-18T16:18:34;12.73;;;8.98;;
49784;SDS011;35679;38.732;-121.358;2022-08-18T16:21:23;11.57;;;8.32;;
49784;SDS011;35679;38.732;-121.358;2022-08-18T16:24:12;13.00;;;8.95;;
49784;SDS011;35679;38.732;-121.358;2022-08-18T16:27:04;13.75;;;9.05;;
49784;SDS011;35679;38.732;-121.358;2022-08-18T16:29:56;12.85;;;8.85;;
49784;SDS011;35679;38.732;-121.358;2022-08-18T16:32:45;10.48;;;8.70;;
49784;SDS011;35679;38.732;-121.358;2022-08-18T16:35:36;11.40;;;8.73;;
49784;SDS011;35679;38.732;-121.358;2022-08-18T16:38:29;11.77;;;8.68;;
49784;SDS011;35679;38.732;-121.358;2022-08-18T16:41:19;12.70;;;9.02;;
49784;SDS011;35679;38.732;-121.358;2022-08-18T16:44:09;12.98;;;9.38;;
49784;SDS011;35679;38.732;-121.358;2022-08-18T16:46:59;12.45;;;8.90;;
49784;SDS011;35679;38.732;-121.358;2022-08-18T16:49:51;12.32;;;8.70;;
49784;SDS011;35679;38.732;-121.358;2022-08-18T16:52:45;12.25;;;8.75;;
49784;SDS011;35679;38.732;-121.358;2022-08-18T16:55:35;12.52;;;9.25;;
49784;SDS011;35679;38.732;-121.358;2022-08-18T16:58:24;14.13;;;9.25;;
49784;SDS011;35679;38.732;-121.358;2022-08-18T17:01:32;12.07;;;8.93;;
49784;SDS011;35679;38.732;-121.358;2022-08-18T17:04:40;10.85;;;8.30;;
49784;SDS011;35679;38.732;-121.358;2022-08-18T17:07:34;13.32;;;9.27;;
49784;SDS011;35679;38.732;-121.358;2022-08-18T17:10:24;13.63;;;10.02;;
49784;SDS011;35679;38.732;-121.358;2022-08-18T17:13:13;14.60;;;9.35;;
49784;SDS011;35679;38.732;-121.358;2022-08-18T17:16:03;13.10;;;9.07;;
49784;SDS011;35679;38.732;-121.358;2022-08-18T17:18:53;12.93;;;9.57;;
49784;SDS011;35679;38.732;-121.358;2022-08-18T17:21:44;12.40;;;9.20;;
49784;SDS011;35679;38.732;-121.358;2022-08-18T17:24:33;12.15;;;9.23;;
49784;SDS011;35679;38.732;-121.358;2022-08-18T17:30:25;13.75;;;9.60;;
49784;SDS011;35679;38.732;-121.358;2022-08-18T17:33:26;14.63;;;9.15;;
49784;SDS011;35679;38.732;-121.358;2022-08-18T17:36:20;12.63;;;9.27;;
49784;SDS011;35679;38.732;-121.358;2022-08-18T17:39:24;12.25;;;9.32;;
49784;SDS011;35679;38.732;-121.358;2022-08-18T17:42:20;13.77;;;9.60;;
49784;SDS011;35679;38.732;-121.358;2022-08-18T17:45:16;12.90;;;9.27;;
49784;SDS011;35679;38.732;-121.358;2022-08-18T17:49:09;12.60;;;9.50;;
49784;SDS011;35679;38.732;-121.358;2022-08-18T17:51:34;11.77;;;9.07;;
49784;SDS011;35679;38.732;-121.358;2022-08-18T17:54:40;14.40;;;9.10;;
49784;SDS011;35679;38.732;-121.358;2022-08-18T17:57:35;12.70;;;9.07;;
49784;SDS011;35679;38.732;-121.358;2022-08-18T18:00:29;14.00;;;9.38;;
49784;SDS011;35679;38.732;-121.358;2022-08-18T18:03:19;13.27;;;9.57;;
49784;SDS011;35679;38.732;-121.358;2022-08-18T18:12:20;13.82;;;9.88;;
49784;SDS011;35679;38.732;-121.358;2022-08-18T18:15:11;14.07;;;9.35;;
49784;SDS011;35679;38.732;-121.358;2022-08-18T18:21:31;11.20;;;8.13;;
49784;SDS011;35679;38.732;-121.358;2022-08-18T18:24:51;13.63;;;9.70;;
49784;SDS011;35679;38.732;-121.358;2022-08-18T18:27:43;11.18;;;8.80;;
49784;SDS011;35679;38.732;-121.358;2022-08-18T18:30:36;12.82;;;9.68;;
49784;SDS011;35679;38.732;-121.358;2022-08-18T18:33:27;13.57;;;9.38;;
49784;SDS011;35679;38.732;-121.358;2022-08-18T18:36:29;11.97;;;9.10;;
49784;SDS011;35679;38.732;-121.358;2022-08-18T18:39:22;12.63;;;8.77;;
49784;SDS011;35679;38.732;-121.358;2022-08-18T18:42:23;12.27;;;9.73;;
49784;SDS011;35679;38.732;-121.358;2022-08-18T18:48:18;13.15;;;8.93;;
49784;SDS011;35679;38.732;-121.358;2022-08-18T18:55:13;11.20;;;8.88;;
49784;SDS011;35679;38.732;-121.358;2022-08-18T18:58:11;11.63;;;8.80;;
49784;SDS011;35679;38.732;-121.358;2022-08-18T19:01:30;13.40;;;9.38;;
49784;SDS011;35679;38.732;-121.358;2022-08-18T19:04:29;12.88;;;8.65;;